PWSweather.com
Personal Weather Stations
Station Observations
BANEKERE1
AntwerpenBE

AntwerpenBE

Lat: 51.2809101, Lon: 4.4202713

Elevation: 40

Station Type:

http://www.akker.be

Latest ConditionsUpdated 4:10:02 PM GMT+01:01 Tuesday, Jul 28, 2015
Currently Today's Max Today's Min Today's Average
Temperature 65.6°F18.7°C 67.8°F19.9°C 58.5°F14.7°C 62.4°F16.9°C
Dew Point 50.0°F10.0°C 55.8°F13.2°C 49.8°F9.9°C 53.3°F11.8°C
Winds 8.1 mph SSW13.0 kmh SSW 16.1 mph S25.9 kmh S - 7.9 mph 12.7 kmh
Wind Gusts 18.4 mph29.6 kmh 24.2 mph38.9 kmh - -
Humidity 57% 86% 56% 73%
Pressure 29.75 in1007.5 mb 29.75 in1007.5 mb 29.66 in1004.4 mb -
Hour Temp Dew Point Humidity Winds Wind Gusts Pressure Precip Precip Rate Daily Precip Total
04:10 PM 65.6°F18.7°C 50.0°F10.0°C 57% 8.1 mph SSW13.0 kmh SSW 18.4 mph29.6 kmh 29.75 in1007.5 mb - 0.00 in0.0 mm 0.00 in0.0 mm
04:00 PM 65.6°F18.7°C 49.9°F9.9°C 57% 8.1 mph SSW13.0 kmh SSW 12.7 mph20.4 kmh 29.75 in1007.5 mb - 0.00 in0.0 mm 0.00 in0.0 mm
03:50 PM 65.7°F18.7°C 50.5°F10.3°C 58% 9.2 mph SW14.8 kmh SW 12.7 mph20.4 kmh 29.74 in1007.1 mb - 0.00 in0.0 mm 0.00 in0.0 mm
03:40 PM 66.0°F18.9°C 50.3°F10.2°C 57% 6.9 mph SW11.1 kmh SW 12.7 mph20.4 kmh 29.74 in1007.1 mb - 0.00 in0.0 mm 0.00 in0.0 mm
03:30 PM 65.9°F18.8°C 49.8°F9.9°C 56% 10.4 mph SW16.7 kmh SW 17.3 mph27.8 kmh 29.74 in1007.1 mb - 0.00 in0.0 mm 0.00 in0.0 mm
03:20 PM 65.7°F18.7°C 50.1°F10.1°C 57% 9.2 mph SW14.8 kmh SW 12.7 mph20.4 kmh 29.74 in1007.1 mb - 0.00 in0.0 mm 0.00 in0.0 mm
03:10 PM 65.7°F18.7°C 50.5°F10.3°C 58% 10.4 mph SW16.7 kmh SW 23.0 mph37.0 kmh 29.74 in1007.1 mb - 0.00 in0.0 mm 0.00 in0.0 mm
03:00 PM 66.2°F19.0°C 50.5°F10.3°C 57% 9.2 mph SSW14.8 kmh SSW 13.8 mph22.2 kmh 29.74 in1007.1 mb - 0.00 in0.0 mm 0.00 in0.0 mm
02:50 PM 66.9°F19.4°C 51.2°F10.7°C 57% 8.1 mph SSW13.0 kmh SSW 11.5 mph18.5 kmh 29.74 in1007.1 mb - 0.00 in0.0 mm 0.00 in0.0 mm
02:40 PM 66.9°F19.4°C 51.6°F10.9°C 58% 10.4 mph SW16.7 kmh SW 17.3 mph27.8 kmh 29.74 in1007.1 mb - 0.00 in0.0 mm 0.00 in0.0 mm
02:30 PM 66.7°F19.3°C 51.0°F10.6°C 57% 6.9 mph SW11.1 kmh SW 12.7 mph20.4 kmh 29.73 in1006.8 mb - 0.00 in0.0 mm 0.00 in0.0 mm
02:20 PM 66.4°F19.1°C 51.6°F10.9°C 59% 8.1 mph SW13.0 kmh SW 18.4 mph29.6 kmh 29.74 in1007.1 mb - 0.00 in0.0 mm 0.00 in0.0 mm
02:10 PM 66.3°F19.1°C 52.0°F11.1°C 60% 6.9 mph S11.1 kmh S 13.8 mph22.2 kmh 29.74 in1007.1 mb - 0.00 in0.0 mm 0.00 in0.0 mm
02:00 PM 66.6°F19.2°C 51.4°F10.8°C 58% 3.5 mph SSW5.6 kmh SSW 6.9 mph11.1 kmh 29.73 in1006.8 mb - 0.00 in0.0 mm 0.00 in0.0 mm
01:50 PM 66.2°F19.0°C 51.0°F10.6°C 58% 5.8 mph SSW9.3 kmh SSW 13.8 mph22.2 kmh 29.73 in1006.8 mb - 0.00 in0.0 mm 0.00 in0.0 mm
01:40 PM 66.9°F19.4°C 52.6°F11.4°C 60% 5.8 mph S9.3 kmh S 12.7 mph20.4 kmh 29.73 in1006.8 mb - 0.00 in0.0 mm 0.00 in0.0 mm
01:30 PM 66.1°F18.9°C 52.2°F11.2°C 61% 6.9 mph WSW11.1 kmh WSW 12.7 mph20.4 kmh 29.73 in1006.8 mb - 0.00 in0.0 mm 0.00 in0.0 mm
01:20 PM 65.7°F18.7°C 51.9°F11.1°C 61% 5.8 mph SW9.3 kmh SW 9.2 mph14.8 kmh 29.73 in1006.8 mb - 0.00 in0.0 mm 0.00 in0.0 mm
01:10 PM 65.9°F18.8°C 52.1°F11.2°C 61% 6.9 mph SW11.1 kmh SW 10.4 mph16.7 kmh 29.73 in1006.8 mb - 0.00 in0.0 mm 0.00 in0.0 mm
01:00 PM 66.5°F19.2°C 51.7°F10.9°C 59% 6.9 mph SW11.1 kmh SW 16.1 mph25.9 kmh 29.72 in1006.4 mb - 0.00 in0.0 mm 0.00 in0.0 mm
12:50 PM 67.8°F19.9°C 51.5°F10.8°C 56% 6.9 mph SSW11.1 kmh SSW 11.5 mph18.5 kmh 29.72 in1006.4 mb - 0.00 in0.0 mm 0.00 in0.0 mm
12:40 PM 67.6°F19.8°C 53.7°F12.1°C 61% 3.5 mph SW5.6 kmh SW 8.1 mph13.0 kmh 29.72 in1006.4 mb - 0.00 in0.0 mm 0.00 in0.0 mm
12:30 PM 66.7°F19.3°C 53.7°F12.1°C 63% 8.1 mph SSW13.0 kmh SSW 10.4 mph16.7 kmh 29.72 in1006.4 mb - 0.00 in0.0 mm 0.00 in0.0 mm
12:20 PM 65.1°F18.4°C 53.5°F11.9°C 66% 5.8 mph SW9.3 kmh SW 9.2 mph14.8 kmh 29.72 in1006.4 mb - 0.00 in0.0 mm 0.00 in0.0 mm
12:10 PM 64.7°F18.2°C 53.9°F12.2°C 68% 6.9 mph SSW11.1 kmh SSW 13.8 mph22.2 kmh 29.72 in1006.4 mb - 0.00 in0.0 mm 0.00 in0.0 mm
12:00 PM 64.6°F18.1°C 53.8°F12.1°C 68% 6.9 mph SSW11.1 kmh SSW 17.3 mph27.8 kmh 29.72 in1006.4 mb - 0.00 in0.0 mm 0.00 in0.0 mm
11:50 AM 65.2°F18.4°C 52.3°F11.3°C 63% 9.2 mph SW14.8 kmh SW 16.1 mph25.9 kmh 29.72 in1006.4 mb - 0.00 in0.0 mm 0.00 in0.0 mm
11:40 AM 66.4°F19.1°C 52.1°F11.2°C 60% 5.8 mph SW9.3 kmh SW 12.7 mph20.4 kmh 29.72 in1006.4 mb - 0.00 in0.0 mm 0.00 in0.0 mm
11:30 AM 67.2°F19.6°C 52.4°F11.3°C 59% 6.9 mph SW11.1 kmh SW 8.1 mph13.0 kmh 29.72 in1006.4 mb - 0.00 in0.0 mm 0.00 in0.0 mm
11:20 AM 65.8°F18.8°C 51.1°F10.6°C 59% 6.9 mph S11.1 kmh S 8.1 mph13.0 kmh 29.71 in1006.1 mb - 0.00 in0.0 mm 0.00 in0.0 mm
11:10 AM 65.7°F18.7°C 51.9°F11.1°C 61% 6.9 mph SW11.1 kmh SW 16.1 mph25.9 kmh 29.71 in1006.1 mb - 0.00 in0.0 mm 0.00 in0.0 mm
11:00 AM 65.3°F18.5°C 52.0°F11.1°C 62% 8.1 mph SSW13.0 kmh SSW 11.5 mph18.5 kmh 29.71 in1006.1 mb - 0.00 in0.0 mm 0.00 in0.0 mm
10:50 AM 65.4°F18.6°C 53.3°F11.8°C 65% 5.8 mph WSW9.3 kmh WSW 10.4 mph16.7 kmh 29.71 in1006.1 mb - 0.00 in0.0 mm 0.00 in0.0 mm
10:40 AM 65.7°F18.7°C 54.0°F12.2°C 66% 5.8 mph SSW9.3 kmh SSW 8.1 mph13.0 kmh 29.70 in1005.8 mb - 0.00 in0.0 mm 0.00 in0.0 mm
10:30 AM 65.7°F18.7°C 54.4°F12.4°C 67% 5.8 mph S9.3 kmh S 12.7 mph20.4 kmh 29.70 in1005.8 mb - 0.00 in0.0 mm 0.00 in0.0 mm
10:20 AM 65.4°F18.6°C 54.9°F12.7°C 69% 9.2 mph SSW14.8 kmh SSW 12.7 mph20.4 kmh 29.70 in1005.8 mb - 0.00 in0.0 mm 0.00 in0.0 mm
10:10 AM 64.5°F18.1°C 54.5°F12.5°C 70% 6.9 mph SSW11.1 kmh SSW 12.7 mph20.4 kmh 29.70 in1005.8 mb - 0.00 in0.0 mm 0.00 in0.0 mm
10:00 AM 64.6°F18.1°C 54.6°F12.6°C 70% 16.1 mph S25.9 kmh S 21.9 mph35.2 kmh 29.69 in1005.4 mb - 0.00 in0.0 mm 0.00 in0.0 mm
09:50 AM 64.1°F17.8°C 54.5°F12.5°C 71% 6.9 mph SW11.1 kmh SW 11.5 mph18.5 kmh 29.70 in1005.8 mb - 0.00 in0.0 mm 0.00 in0.0 mm
09:40 AM 63.1°F17.3°C 54.3°F12.4°C 73% 5.8 mph SW9.3 kmh SW 11.5 mph18.5 kmh 29.70 in1005.8 mb - 0.00 in0.0 mm 0.00 in0.0 mm
09:30 AM 63.2°F17.3°C 55.1°F12.8°C 75% 8.1 mph S13.0 kmh S 12.7 mph20.4 kmh 29.70 in1005.8 mb - 0.00 in0.0 mm 0.00 in0.0 mm
09:20 AM 62.9°F17.2°C 55.2°F12.9°C 76% 8.1 mph SW13.0 kmh SW 17.3 mph27.8 kmh 29.70 in1005.8 mb - 0.00 in0.0 mm 0.00 in0.0 mm
09:10 AM 62.6°F17.0°C 54.6°F12.6°C 75% 9.2 mph SSW14.8 kmh SSW 12.7 mph20.4 kmh 29.70 in1005.8 mb - 0.00 in0.0 mm 0.00 in0.0 mm
09:00 AM 62.4°F16.9°C 55.0°F12.8°C 77% 6.9 mph SSW11.1 kmh SSW 12.7 mph20.4 kmh 29.69 in1005.4 mb - 0.00 in0.0 mm 0.00 in0.0 mm
08:50 AM 62.1°F16.7°C 55.5°F13.1°C 79% 11.5 mph SSW18.5 kmh SSW 16.1 mph25.9 kmh 29.69 in1005.4 mb - 0.00 in0.0 mm 0.00 in0.0 mm
08:40 AM 61.7°F16.5°C 55.8°F13.2°C 81% 6.9 mph SW11.1 kmh SW 12.7 mph20.4 kmh 29.69 in1005.4 mb - 0.00 in0.0 mm 0.00 in0.0 mm
08:30 AM 61.1°F16.2°C 55.2°F12.9°C 81% 10.4 mph S16.7 kmh S 13.8 mph22.2 kmh 29.69 in1005.4 mb - 0.00 in0.0 mm 0.00 in0.0 mm
08:20 AM 61.1°F16.2°C 54.9°F12.7°C 80% 9.2 mph SW14.8 kmh SW 12.7 mph20.4 kmh 29.69 in1005.4 mb - 0.00 in0.0 mm 0.00 in0.0 mm
08:10 AM 61.0°F16.1°C 55.1°F12.8°C 81% 10.4 mph S16.7 kmh S 15.0 mph24.1 kmh 29.69 in1005.4 mb - 0.00 in0.0 mm 0.00 in0.0 mm
08:00 AM 60.7°F15.9°C 54.8°F12.7°C 81% 6.9 mph SW11.1 kmh SW 13.8 mph22.2 kmh 29.69 in1005.4 mb - 0.00 in0.0 mm 0.00 in0.0 mm
07:50 AM 60.4°F15.8°C 54.5°F12.5°C 81% 9.2 mph SSW14.8 kmh SSW 12.7 mph20.4 kmh 29.69 in1005.4 mb - 0.00 in0.0 mm 0.00 in0.0 mm
07:40 AM 60.2°F15.7°C 54.7°F12.6°C 82% 8.1 mph SSW13.0 kmh SSW 12.7 mph20.4 kmh 29.69 in1005.4 mb - 0.00 in0.0 mm 0.00 in0.0 mm
07:30 AM 59.9°F15.5°C 54.7°F12.6°C 83% 9.2 mph SSW14.8 kmh SSW 12.7 mph20.4 kmh 29.69 in1005.4 mb - 0.00 in0.0 mm 0.00 in0.0 mm
07:20 AM 59.5°F15.3°C 54.7°F12.6°C 84% 10.4 mph SW16.7 kmh SW 16.1 mph25.9 kmh 29.69 in1005.4 mb - 0.00 in0.0 mm 0.00 in0.0 mm
07:10 AM 59.2°F15.1°C 54.7°F12.6°C 85% 8.1 mph SSW13.0 kmh SSW 12.7 mph20.4 kmh 29.69 in1005.4 mb - 0.00 in0.0 mm 0.00 in0.0 mm
07:00 AM 59.0°F15.0°C 54.5°F12.5°C 85% 9.2 mph S14.8 kmh S 16.1 mph25.9 kmh 29.69 in1005.4 mb - 0.00 in0.0 mm 0.00 in0.0 mm
06:50 AM 58.8°F14.9°C 54.6°F12.6°C 86% 8.1 mph SSW13.0 kmh SSW 13.8 mph22.2 kmh 29.68 in1005.1 mb - 0.00 in0.0 mm 0.00 in0.0 mm
06:40 AM 58.8°F14.9°C 54.6°F12.6°C 86% 8.1 mph SSW13.0 kmh SSW 12.7 mph20.4 kmh 29.68 in1005.1 mb - 0.00 in0.0 mm 0.00 in0.0 mm
06:30 AM 58.9°F14.9°C 54.4°F12.4°C 85% 5.8 mph S9.3 kmh S 11.5 mph18.5 kmh 29.67 in1004.7 mb - 0.00 in0.0 mm 0.00 in0.0 mm
06:20 AM 58.9°F14.9°C 54.4°F12.4°C 85% 9.2 mph S14.8 kmh S 19.6 mph31.5 kmh 29.67 in1004.7 mb - 0.00 in0.0 mm 0.00 in0.0 mm
06:10 AM 58.7°F14.8°C 54.2°F12.3°C 85% 8.1 mph SSW13.0 kmh SSW 11.5 mph18.5 kmh 29.67 in1004.7 mb - 0.00 in0.0 mm 0.00 in0.0 mm
06:00 AM 58.6°F14.8°C 54.1°F12.3°C 85% 4.6 mph S7.4 kmh S 12.7 mph20.4 kmh 29.67 in1004.7 mb - 0.00 in0.0 mm 0.00 in0.0 mm
05:50 AM 58.7°F14.8°C 54.2°F12.3°C 85% 8.1 mph SSW13.0 kmh SSW 13.8 mph22.2 kmh 29.67 in1004.7 mb - 0.00 in0.0 mm 0.00 in0.0 mm
05:40 AM 58.7°F14.8°C 54.2°F12.3°C 85% 9.2 mph SSW14.8 kmh SSW 11.5 mph18.5 kmh 29.67 in1004.7 mb - 0.00 in0.0 mm 0.00 in0.0 mm
05:30 AM 58.6°F14.8°C 54.1°F12.3°C 85% 5.8 mph SSW9.3 kmh SSW 11.5 mph18.5 kmh 29.67 in1004.7 mb - 0.00 in0.0 mm 0.00 in0.0 mm
05:20 AM 58.5°F14.7°C 54.0°F12.2°C 85% 4.6 mph SSW7.4 kmh SSW 10.4 mph16.7 kmh 29.66 in1004.4 mb - 0.00 in0.0 mm 0.00 in0.0 mm
05:10 AM 58.5°F14.7°C 54.0°F12.2°C 85% 10.4 mph SSW16.7 kmh SSW 16.1 mph25.9 kmh 29.66 in1004.4 mb - 0.00 in0.0 mm 0.00 in0.0 mm
05:00 AM 58.6°F14.8°C 53.8°F12.1°C 84% 6.9 mph SSW11.1 kmh SSW 13.8 mph22.2 kmh 29.66 in1004.4 mb - 0.00 in0.0 mm 0.00 in0.0 mm
04:50 AM 58.8°F14.9°C 53.7°F12.1°C 83% 11.5 mph SSW18.5 kmh SSW 13.8 mph22.2 kmh 29.66 in1004.4 mb - 0.00 in0.0 mm 0.00 in0.0 mm
04:40 AM 59.1°F15.1°C 53.9°F12.2°C 83% 6.9 mph SSW11.1 kmh SSW 16.1 mph25.9 kmh 29.66 in1004.4 mb - 0.00 in0.0 mm 0.00 in0.0 mm
04:30 AM 59.4°F15.2°C 53.9°F12.2°C 82% 9.2 mph SSW14.8 kmh SSW 15.0 mph24.1 kmh 29.66 in1004.4 mb - 0.00 in0.0 mm 0.00 in0.0 mm
04:20 AM 59.8°F15.4°C 54.0°F12.2°C 81% 8.1 mph SSW13.0 kmh SSW 11.5 mph18.5 kmh 29.66 in1004.4 mb - 0.00 in0.0 mm 0.00 in0.0 mm
04:10 AM 60.0°F15.6°C 53.8°F12.1°C 80% 8.1 mph SSW13.0 kmh SSW 9.2 mph14.8 kmh 29.66 in1004.4 mb - 0.00 in0.0 mm 0.00 in0.0 mm
04:00 AM 60.1°F15.6°C 53.9°F12.2°C 80% 8.1 mph SSW13.0 kmh SSW 15.0 mph24.1 kmh 29.66 in1004.4 mb - 0.00 in0.0 mm 0.00 in0.0 mm
03:50 AM 60.1°F15.6°C 53.6°F12.0°C 79% 4.6 mph S7.4 kmh S 11.5 mph18.5 kmh 29.66 in1004.4 mb - 0.00 in0.0 mm 0.00 in0.0 mm
03:40 AM 60.1°F15.6°C 53.6°F12.0°C 79% 10.4 mph S16.7 kmh S 12.7 mph20.4 kmh 29.66 in1004.4 mb - 0.00 in0.0 mm 0.00 in0.0 mm
03:30 AM 60.2°F15.7°C 53.7°F12.1°C 79% 6.9 mph SSW11.1 kmh SSW 12.7 mph20.4 kmh 29.66 in1004.4 mb - 0.00 in0.0 mm 0.00 in0.0 mm
03:20 AM 60.2°F15.7°C 53.7°F12.1°C 79% 9.2 mph SSW14.8 kmh SSW 15.0 mph24.1 kmh 29.66 in1004.4 mb - 0.00 in0.0 mm 0.00 in0.0 mm
03:10 AM 60.2°F15.7°C 53.7°F12.1°C 79% 4.6 mph SSW7.4 kmh SSW 10.4 mph16.7 kmh 29.66 in1004.4 mb - 0.00 in0.0 mm 0.00 in0.0 mm
03:00 AM 60.3°F15.7°C 53.8°F12.1°C 79% 6.9 mph SSW11.1 kmh SSW 9.2 mph14.8 kmh 29.66 in1004.4 mb - 0.00 in0.0 mm 0.00 in0.0 mm
02:50 AM 60.3°F15.7°C 53.4°F11.9°C 78% 11.5 mph SSW18.5 kmh SSW 15.0 mph24.1 kmh 29.66 in1004.4 mb - 0.00 in0.0 mm 0.00 in0.0 mm
02:40 AM 60.4°F15.8°C 53.5°F11.9°C 78% 10.4 mph SSW16.7 kmh SSW 10.4 mph16.7 kmh 29.66 in1004.4 mb - 0.00 in0.0 mm 0.00 in0.0 mm
02:30 AM 60.4°F15.8°C 53.5°F11.9°C 78% 8.1 mph SSW13.0 kmh SSW 21.9 mph35.2 kmh 29.66 in1004.4 mb - 0.00 in0.0 mm 0.00 in0.0 mm
02:20 AM 60.4°F15.8°C 53.5°F11.9°C 78% 5.8 mph S9.3 kmh S 12.7 mph20.4 kmh 29.66 in1004.4 mb - 0.00 in0.0 mm 0.00 in0.0 mm
02:10 AM 60.3°F15.7°C 53.8°F12.1°C 79% 10.4 mph SSW16.7 kmh SSW 17.3 mph27.8 kmh 29.66 in1004.4 mb - 0.00 in0.0 mm 0.00 in0.0 mm
02:00 AM 60.2°F15.7°C 53.7°F12.1°C 79% 4.6 mph SSW7.4 kmh SSW 9.2 mph14.8 kmh 29.66 in1004.4 mb - 0.00 in0.0 mm 0.00 in0.0 mm
01:50 AM 60.1°F15.6°C 53.6°F12.0°C 79% 9.2 mph SSW14.8 kmh SSW 11.5 mph18.5 kmh 29.66 in1004.4 mb - 0.00 in0.0 mm 0.00 in0.0 mm
01:40 AM 60.1°F15.6°C 53.2°F11.8°C 78% 5.8 mph SW9.3 kmh SW 8.1 mph13.0 kmh 29.66 in1004.4 mb - 0.00 in0.0 mm 0.00 in0.0 mm
01:30 AM 60.1°F15.6°C 53.2°F11.8°C 78% 6.9 mph SW11.1 kmh SW 12.7 mph20.4 kmh 29.66 in1004.4 mb - 0.00 in0.0 mm 0.00 in0.0 mm
01:20 AM 60.2°F15.7°C 53.3°F11.8°C 78% 8.1 mph SSW13.0 kmh SSW 12.7 mph20.4 kmh 29.66 in1004.4 mb - 0.00 in0.0 mm 0.00 in0.0 mm
01:10 AM 60.2°F15.7°C 53.0°F11.7°C 77% 6.9 mph SSW11.1 kmh SSW 10.4 mph16.7 kmh 29.66 in1004.4 mb - 0.00 in0.0 mm 0.00 in0.0 mm
01:00 AM 60.3°F15.7°C 53.1°F11.7°C 77% 10.4 mph SSW16.7 kmh SSW 13.8 mph22.2 kmh 29.66 in1004.4 mb - 0.00 in0.0 mm 0.00 in0.0 mm
12:50 AM 60.4°F15.8°C 53.2°F11.8°C 77% 10.4 mph SW16.7 kmh SW 12.7 mph20.4 kmh 29.66 in1004.4 mb - 0.00 in0.0 mm 0.00 in0.0 mm
12:40 AM 60.4°F15.8°C 53.2°F11.8°C 77% 10.4 mph SW16.7 kmh SW 17.3 mph27.8 kmh 29.67 in1004.7 mb - 0.00 in0.0 mm 0.00 in0.0 mm
12:30 AM 60.4°F15.8°C 53.2°F11.8°C 77% 8.1 mph SW13.0 kmh SW 24.2 mph38.9 kmh 29.67 in1004.7 mb - 0.00 in0.0 mm 0.00 in0.0 mm
12:20 AM 60.5°F15.8°C 53.3°F11.8°C 77% 9.2 mph SW14.8 kmh SW 8.1 mph13.0 kmh 29.67 in1004.7 mb - 0.00 in0.0 mm 0.00 in0.0 mm
12:10 AM 60.6°F15.9°C 52.9°F11.6°C 76% 5.8 mph SW9.3 kmh SW 11.5 mph18.5 kmh 29.67 in1004.7 mb - 0.00 in0.0 mm 0.00 in0.0 mm
12:00 AM 60.7°F15.9°C 53.1°F11.7°C 76% 10.4 mph SSW16.7 kmh SSW 16.1 mph25.9 kmh 29.67 in1004.7 mb - 0.00 in0.0 mm 0.00 in0.0 mm